createdAt,value
2018-06-13T00:01:29.045Z,94.50
2018-06-13T00:03:58.184Z,95.30
2018-06-13T00:06:27.573Z,94.90
2018-06-13T00:08:56.975Z,95.20
2018-06-13T00:11:26.288Z,96.90
2018-06-13T00:13:55.639Z,96.10
2018-06-13T00:16:24.968Z,97.80
2018-06-13T00:21:23.677Z,97.70
2018-06-13T00:23:53.048Z,98.00
2018-06-13T00:26:22.362Z,98.00
2018-06-13T00:28:51.745Z,98.30
2018-06-13T00:31:21.087Z,99.20
2018-06-13T00:33:50.513Z,99.80
2018-06-13T00:36:19.888Z,99.80
2018-06-13T00:38:49.296Z,99.80
2018-06-13T00:41:18.971Z,99.90
2018-06-13T00:43:48.320Z,99.90
2018-06-13T00:46:18.406Z,99.90
2018-06-13T00:48:47.847Z,99.90
2018-06-13T00:53:46.739Z,99.90
2018-06-13T00:56:27.477Z,99.90
2018-06-13T00:58:57.304Z,99.90
2018-06-13T01:01:28.407Z,99.90
2018-06-13T01:03:58.100Z,99.90
2018-06-13T01:06:27.496Z,99.90
2018-06-13T01:08:56.954Z,99.90
2018-06-13T01:11:26.688Z,99.90
2018-06-13T01:13:56.114Z,99.90
2018-06-13T01:16:25.662Z,99.90
2018-06-13T01:18:55.291Z,99.90
2018-06-13T01:21:24.643Z,99.90
2018-06-13T01:23:54.429Z,99.90
2018-06-13T01:26:24.550Z,99.90
2018-06-13T01:28:54.759Z,99.90
2018-06-13T01:31:24.006Z,99.90
2018-06-13T01:33:53.413Z,99.90
2018-06-13T01:36:29.424Z,99.90
2018-06-13T01:38:59.119Z,99.90
2018-06-13T01:41:28.640Z,99.90
2018-06-13T01:43:58.266Z,99.90
2018-06-13T01:46:28.092Z,99.90
2018-06-13T01:48:57.610Z,99.90
2018-06-13T01:51:26.773Z,99.90
2018-06-13T01:53:56.376Z,99.90
2018-06-13T01:58:56.400Z,99.90
2018-06-13T02:01:25.697Z,99.90
2018-06-13T02:03:56.745Z,99.90
2018-06-13T02:06:26.537Z,99.90
2018-06-13T02:08:56.544Z,99.90
2018-06-13T02:11:26.798Z,99.90
2018-06-13T02:13:57.491Z,99.90
2018-06-13T02:16:27.236Z,99.90
2018-06-13T02:18:57.050Z,99.90
2018-06-13T02:21:27.587Z,99.90
2018-06-13T02:23:57.444Z,99.90
2018-06-13T02:26:27.402Z,99.90
2018-06-13T02:28:57.821Z,99.90
2018-06-13T02:31:27.727Z,99.90
2018-06-13T02:33:58.376Z,99.90
2018-06-13T02:36:29.968Z,99.90
2018-06-13T02:38:59.861Z,99.90
2018-06-13T02:41:29.537Z,99.90
2018-06-13T02:43:59.752Z,99.90
2018-06-13T02:46:30.255Z,99.90
2018-06-13T02:49:00.511Z,99.90
2018-06-13T02:51:30.448Z,99.90
2018-06-13T02:54:01.141Z,99.90
2018-06-13T02:56:30.775Z,99.90
2018-06-13T02:59:00.380Z,99.90
2018-06-13T03:01:30.791Z,99.90
2018-06-13T03:04:00.971Z,99.90
2018-06-13T03:06:30.845Z,99.90
2018-06-13T03:09:02.167Z,99.90
2018-06-13T03:11:32.960Z,99.90
2018-06-13T03:14:02.743Z,99.90
2018-06-13T03:16:32.969Z,99.90
2018-06-13T03:19:02.927Z,99.90
2018-06-13T03:21:32.896Z,99.90
2018-06-13T03:24:03.275Z,99.90
2018-06-13T03:26:33.677Z,99.90
2018-06-13T03:29:03.342Z,99.90
2018-06-13T03:31:33.346Z,99.90
2018-06-13T03:34:02.975Z,99.90
2018-06-13T03:36:32.631Z,99.90
2018-06-13T03:39:02.258Z,99.90
2018-06-13T03:41:31.682Z,99.90
2018-06-13T03:44:02.569Z,99.90
2018-06-13T03:46:32.297Z,99.90
2018-06-13T03:49:01.935Z,99.90
2018-06-13T03:51:31.647Z,99.90
2018-06-13T03:54:01.305Z,99.90
2018-06-13T03:56:31.805Z,99.90
2018-06-13T03:59:01.418Z,99.90
2018-06-13T04:01:31.414Z,99.90
2018-06-13T04:04:01.077Z,99.90
2018-06-13T04:06:30.729Z,99.90
2018-06-13T04:09:00.354Z,99.90
2018-06-13T04:11:30.066Z,99.90
2018-06-13T04:13:59.680Z,99.90
2018-06-13T04:16:29.340Z,99.90
2018-06-13T04:18:59.103Z,99.90
2018-06-13T04:21:28.712Z,99.90
2018-06-13T04:23:58.149Z,99.90
2018-06-13T04:26:27.978Z,99.90
2018-06-13T04:28:57.619Z,99.90
2018-06-13T04:31:27.301Z,99.90
2018-06-13T04:33:56.988Z,99.90
2018-06-13T04:36:26.772Z,99.90
2018-06-13T04:38:56.408Z,99.90
2018-06-13T04:41:26.834Z,99.90
2018-06-13T04:43:56.506Z,99.90
2018-06-13T04:46:26.139Z,99.90
2018-06-13T04:48:55.785Z,99.90
2018-06-13T04:51:25.388Z,99.90
2018-06-13T04:53:55.014Z,99.90
2018-06-13T04:56:25.653Z,99.90
2018-06-13T04:58:55.372Z,99.90
2018-06-13T05:01:25.009Z,99.90
2018-06-13T05:03:54.652Z,99.90
2018-06-13T05:06:24.267Z,99.90
2018-06-13T05:08:53.936Z,99.90
2018-06-13T05:11:23.599Z,99.90
2018-06-13T05:13:53.246Z,99.90
2018-06-13T05:18:52.171Z,99.90
2018-06-13T05:21:21.860Z,99.90
2018-06-13T05:23:51.406Z,99.90
2018-06-13T05:26:21.183Z,99.90
2018-06-13T05:28:50.757Z,99.90
2018-06-13T05:31:20.181Z,99.90
2018-06-13T05:33:49.992Z,99.90
2018-06-13T05:36:19.281Z,99.90
2018-06-13T05:38:49.273Z,99.90
2018-06-13T05:41:18.739Z,99.90
2018-06-13T05:43:48.142Z,99.90
2018-06-13T05:46:17.968Z,99.90
2018-06-13T05:48:47.527Z,99.90
2018-06-13T05:51:16.889Z,99.90
2018-06-13T05:53:46.344Z,99.90
2018-06-13T05:56:15.749Z,99.90
2018-06-13T05:58:45.508Z,99.90
2018-06-13T06:01:14.973Z,99.90
2018-06-13T06:03:45.079Z,99.90
2018-06-13T06:06:14.901Z,99.90
2018-06-13T06:08:44.599Z,99.90
2018-06-13T06:11:14.264Z,99.90
2018-06-13T06:13:43.828Z,99.90
2018-06-13T06:16:13.306Z,99.90
2018-06-13T06:18:42.722Z,99.90
2018-06-13T06:21:12.361Z,99.90
2018-06-13T06:23:42.070Z,99.90
2018-06-13T06:26:11.660Z,99.90
2018-06-13T06:28:41.280Z,99.90
2018-06-13T06:31:11.028Z,99.90
2018-06-13T06:33:40.430Z,99.90
2018-06-13T06:36:10.460Z,99.90
2018-06-13T06:38:41.868Z,99.90
2018-06-13T06:41:11.506Z,99.90
2018-06-13T06:43:41.798Z,99.90
2018-06-13T06:46:11.449Z,99.90
2018-06-13T06:48:41.131Z,99.90
2018-06-13T06:51:10.719Z,99.90
2018-06-13T06:53:40.349Z,99.90
2018-06-13T06:56:09.738Z,99.90
2018-06-13T06:58:39.461Z,99.90
2018-06-13T07:01:08.515Z,99.90
2018-06-13T07:03:38.236Z,99.90
2018-06-13T07:06:08.132Z,99.90
2018-06-13T07:08:37.737Z,99.90
2018-06-13T07:11:07.649Z,99.90
2018-06-13T07:13:37.275Z,99.90
2018-06-13T07:16:07.012Z,99.90
2018-06-13T07:18:36.668Z,99.90
2018-06-13T07:21:07.076Z,99.90
2018-06-13T07:23:36.608Z,99.90
2018-06-13T07:26:06.668Z,99.90
2018-06-13T07:28:36.334Z,99.90
2018-06-13T07:31:06.993Z,99.90
2018-06-13T07:33:36.602Z,99.90
2018-06-13T07:36:06.119Z,99.90
2018-06-13T07:38:35.612Z,99.90
2018-06-13T07:41:04.957Z,99.90
2018-06-13T07:43:34.311Z,99.90
2018-06-13T07:46:03.714Z,99.90
2018-06-13T07:48:33.448Z,99.90
2018-06-13T07:51:02.816Z,99.90
2018-06-13T07:53:32.130Z,99.90
2018-06-13T07:56:01.801Z,99.90
2018-06-13T07:58:38.928Z,99.90
2018-06-13T08:01:08.336Z,99.90
2018-06-13T08:03:37.689Z,99.90
2018-06-13T08:08:37.260Z,97.70
2018-06-13T08:11:07.488Z,97.90
2018-06-13T08:13:36.955Z,99.30
2018-06-13T08:16:06.808Z,99.90
2018-06-13T08:18:36.210Z,99.90
2018-06-13T08:21:05.972Z,99.90
2018-06-13T08:26:04.621Z,99.90
2018-06-13T08:28:34.102Z,99.60
2018-06-13T08:31:03.308Z,98.50
2018-06-13T08:33:32.434Z,96.30
2018-06-13T08:36:01.912Z,92.40
2018-06-13T08:38:31.329Z,90.10
2018-06-13T08:41:00.640Z,85.50
2018-06-13T08:43:30.772Z,77.10
2018-06-13T08:46:01.041Z,76.70
2018-06-13T08:48:31.155Z,84.10
2018-06-13T08:51:01.159Z,90.10
2018-06-13T08:53:30.472Z,91.00
2018-06-13T08:56:00.474Z,90.70
2018-06-13T08:58:30.342Z,91.70
2018-06-13T09:01:00.496Z,91.30
2018-06-13T09:03:29.859Z,90.20
2018-06-13T09:05:59.301Z,87.50
2018-06-13T09:08:28.635Z,90.10
2018-06-13T09:10:58.585Z,92.20
2018-06-13T09:13:27.944Z,94.10
2018-06-13T09:15:57.333Z,96.50
2018-06-13T09:18:26.689Z,98.50
2018-06-13T09:20:56.009Z,99.60
2018-06-13T09:23:25.308Z,99.90
2018-06-13T09:25:54.748Z,99.90
2018-06-13T09:28:24.044Z,99.50
2018-06-13T09:30:53.374Z,99.20
2018-06-13T09:33:22.711Z,97.80
2018-06-13T09:35:52.388Z,97.20
2018-06-13T09:38:21.699Z,96.10
2018-06-13T09:40:51.126Z,96.80
2018-06-13T09:43:20.749Z,96.40
2018-06-13T09:45:50.132Z,97.90
2018-06-13T09:48:19.424Z,99.90
2018-06-13T09:50:48.756Z,99.90
2018-06-13T09:53:18.253Z,99.90
2018-06-13T09:55:47.651Z,99.90
2018-06-13T09:58:16.707Z,99.90
2018-06-13T10:00:51.539Z,99.90
2018-06-13T10:03:20.869Z,99.90
2018-06-13T10:05:50.206Z,99.90
2018-06-13T10:08:19.573Z,99.90
2018-06-13T10:10:49.205Z,99.90
2018-06-13T10:13:18.535Z,99.90
2018-06-13T10:18:16.806Z,99.90
2018-06-13T10:20:46.128Z,99.90
2018-06-13T10:23:15.399Z,99.90
2018-06-13T10:25:44.722Z,99.90
2018-06-13T10:28:14.036Z,99.90
2018-06-13T10:30:43.328Z,99.90
2018-06-13T10:33:12.947Z,99.90
2018-06-13T10:38:11.488Z,99.00
2018-06-13T10:40:40.924Z,99.90
2018-06-13T10:43:10.267Z,99.90
2018-06-13T10:45:39.611Z,99.50
2018-06-13T10:48:10.188Z,98.60
2018-06-13T10:50:39.492Z,98.00
2018-06-13T10:55:38.161Z,99.80
2018-06-13T10:58:07.615Z,99.90
2018-06-13T11:00:36.932Z,99.90
2018-06-13T11:03:06.246Z,99.20
2018-06-13T11:05:35.562Z,98.80
2018-06-13T11:08:05.245Z,98.20
2018-06-13T11:10:34.624Z,98.90
2018-06-13T11:13:03.650Z,99.90
2018-06-13T11:15:32.944Z,99.90
2018-06-13T11:18:02.245Z,99.90
2018-06-13T11:20:31.760Z,99.90
2018-06-13T11:23:01.139Z,99.90
2018-06-13T11:25:30.461Z,99.90
2018-06-13T11:27:59.814Z,99.90
2018-06-13T11:30:29.175Z,99.90
2018-06-13T11:32:58.516Z,99.90
2018-06-13T11:35:27.849Z,99.90
2018-06-13T11:37:57.176Z,99.90
2018-06-13T11:40:26.487Z,99.90
2018-06-13T11:42:55.817Z,99.90
2018-06-13T11:45:25.514Z,99.90
2018-06-13T11:47:54.832Z,99.90
2018-06-13T11:50:24.499Z,99.90
2018-06-13T11:52:53.845Z,99.90
2018-06-13T11:55:23.178Z,99.90
2018-06-13T11:57:52.477Z,99.90
2018-06-13T12:00:21.595Z,99.90
2018-06-13T12:02:51.044Z,99.90
2018-06-13T12:05:20.387Z,99.90
2018-06-13T12:07:49.716Z,99.90
2018-06-13T12:10:19.051Z,99.90
2018-06-13T12:12:48.350Z,99.90
2018-06-13T12:15:17.668Z,99.90
2018-06-13T12:17:47.022Z,99.90
2018-06-13T12:20:16.286Z,99.90
2018-06-13T12:22:45.599Z,99.90
2018-06-13T12:25:14.932Z,99.90
2018-06-13T12:27:44.315Z,99.90
2018-06-13T12:30:13.775Z,99.90
2018-06-13T12:32:43.133Z,99.90
2018-06-13T12:35:12.480Z,99.90
2018-06-13T12:37:41.866Z,99.90
2018-06-13T12:40:11.232Z,99.90
2018-06-13T12:42:40.768Z,99.90
2018-06-13T12:45:10.167Z,99.90
2018-06-13T12:47:39.463Z,99.90
2018-06-13T12:50:08.832Z,99.90
2018-06-13T12:52:38.309Z,99.90
2018-06-13T12:55:07.607Z,99.90
2018-06-13T12:57:36.974Z,99.90
2018-06-13T13:00:06.633Z,99.90
2018-06-13T13:02:36.171Z,99.90
2018-06-13T13:05:05.544Z,99.90
2018-06-13T13:07:34.888Z,99.90
2018-06-13T13:10:04.543Z,99.90
2018-06-13T13:12:34.009Z,99.90
2018-06-13T13:15:03.636Z,99.90
2018-06-13T13:17:33.313Z,99.90
2018-06-13T13:20:02.714Z,99.90
2018-06-13T13:22:32.778Z,99.90
2018-06-13T13:25:02.273Z,99.90
2018-06-13T13:27:31.315Z,99.90
2018-06-13T13:30:00.776Z,99.90
2018-06-13T13:32:30.248Z,99.90
2018-06-13T13:34:59.645Z,99.90
2018-06-13T13:37:29.604Z,99.90
2018-06-13T13:39:58.911Z,99.90
2018-06-13T13:42:28.257Z,99.90
2018-06-13T13:44:57.970Z,99.90
2018-06-13T13:47:27.586Z,99.90
2018-06-13T13:49:57.622Z,99.90
2018-06-13T13:52:27.243Z,99.90
2018-06-13T13:54:56.556Z,99.90
2018-06-13T13:57:25.797Z,99.90
2018-06-13T13:59:55.113Z,99.90
2018-06-13T14:02:24.511Z,99.90
2018-06-13T14:04:53.884Z,99.90
2018-06-13T14:07:23.175Z,99.90
2018-06-13T14:09:52.584Z,99.90
2018-06-13T14:12:21.996Z,99.90
2018-06-13T14:14:51.856Z,99.90
2018-06-13T14:17:21.236Z,99.90
2018-06-13T14:19:50.557Z,99.90
2018-06-13T14:22:20.236Z,99.90
2018-06-13T14:24:49.880Z,99.90
2018-06-13T14:27:19.207Z,99.90
2018-06-13T14:29:48.490Z,99.90
2018-06-13T14:32:18.120Z,99.90
2018-06-13T14:34:47.483Z,99.90
2018-06-13T14:37:16.831Z,99.90
2018-06-13T14:39:46.080Z,99.90
2018-06-13T14:42:15.156Z,99.90
2018-06-13T14:44:44.840Z,99.90
2018-06-13T14:47:14.181Z,99.90
2018-06-13T14:49:43.289Z,99.90
2018-06-13T14:52:13.733Z,99.90
2018-06-13T14:54:43.138Z,99.90
2018-06-13T14:57:12.789Z,99.90
2018-06-13T14:59:42.157Z,99.90
2018-06-13T15:02:11.938Z,99.90
2018-06-13T15:04:41.318Z,99.90
2018-06-13T15:07:11.089Z,99.90
2018-06-13T15:09:40.412Z,99.90
2018-06-13T15:12:09.821Z,99.90
2018-06-13T15:14:39.334Z,99.90
2018-06-13T15:17:08.690Z,99.90
2018-06-13T15:19:38.104Z,99.90
2018-06-13T15:22:07.519Z,99.90
2018-06-13T15:24:36.847Z,99.90
2018-06-13T15:27:06.163Z,99.90
2018-06-13T15:29:35.522Z,99.90
2018-06-13T15:32:05.235Z,99.90
2018-06-13T15:34:35.016Z,99.90
2018-06-13T15:37:05.031Z,99.90
2018-06-13T15:39:34.420Z,99.90
2018-06-13T15:42:03.755Z,99.90
2018-06-13T15:44:33.380Z,99.90
2018-06-13T15:47:03.000Z,99.90
2018-06-13T15:49:32.691Z,99.90
2018-06-13T15:52:02.096Z,99.90
2018-06-13T15:54:31.439Z,99.90
2018-06-13T15:57:00.909Z,99.90
2018-06-13T15:59:30.656Z,99.90
2018-06-13T16:02:00.833Z,99.90
2018-06-13T16:04:29.917Z,99.90
2018-06-13T16:09:28.550Z,99.90
2018-06-13T16:14:34.899Z,99.90
2018-06-13T16:17:04.561Z,99.90
2018-06-13T16:19:34.998Z,99.90
2018-06-13T16:22:04.468Z,99.90
2018-06-13T16:24:34.584Z,99.90
2018-06-13T16:27:04.084Z,99.90
2018-06-13T16:29:33.883Z,99.90
2018-06-13T16:32:03.573Z,99.90
2018-06-13T16:34:33.037Z,99.90
2018-06-13T16:37:02.550Z,99.90
2018-06-13T16:39:31.967Z,99.90
2018-06-13T16:42:01.866Z,99.90
2018-06-13T16:44:31.422Z,99.90
2018-06-13T16:47:01.244Z,99.90
2018-06-13T16:49:30.751Z,99.90
2018-06-13T16:54:48.024Z,99.90
2018-06-13T16:57:17.141Z,99.90
2018-06-13T16:59:46.945Z,99.90
2018-06-13T17:02:16.306Z,99.90
2018-06-13T17:04:45.653Z,99.90
2018-06-13T17:07:15.008Z,99.90
2018-06-13T17:09:44.338Z,99.90
2018-06-13T17:12:13.673Z,99.90
2018-06-13T17:14:43.036Z,99.90
2018-06-13T17:17:12.700Z,99.90
2018-06-13T17:19:42.422Z,99.90
2018-06-13T17:24:40.923Z,99.90
2018-06-13T17:29:40.098Z,99.90
2018-06-13T17:32:09.447Z,99.90
2018-06-13T17:34:39.000Z,99.90
2018-06-13T17:37:08.508Z,99.90
2018-06-13T17:39:38.325Z,99.90
2018-06-13T17:42:07.645Z,99.90
2018-06-13T17:44:37.403Z,99.90
2018-06-13T17:47:06.777Z,99.90
2018-06-13T17:49:38.292Z,99.90
2018-06-13T17:52:08.124Z,99.90
2018-06-13T17:54:37.589Z,99.90
2018-06-13T17:57:07.276Z,99.90
2018-06-13T18:02:06.857Z,99.90
2018-06-13T18:04:37.558Z,99.90
2018-06-13T18:07:07.416Z,99.90
2018-06-13T18:09:36.931Z,99.90
2018-06-13T18:12:07.667Z,99.90
2018-06-13T18:14:38.555Z,99.90
2018-06-13T18:17:07.914Z,99.90
2018-06-13T18:19:37.845Z,99.90
2018-06-13T18:22:07.271Z,99.90
2018-06-13T18:24:36.963Z,99.90
2018-06-13T18:27:06.310Z,99.90
2018-06-13T18:29:36.016Z,99.90
2018-06-13T18:32:05.332Z,99.90
2018-06-13T18:34:34.720Z,99.90
2018-06-13T18:37:04.597Z,99.90
2018-06-13T18:39:33.971Z,99.90
2018-06-13T18:42:03.326Z,99.90
2018-06-13T18:44:32.792Z,99.90
2018-06-13T18:47:02.220Z,99.90
2018-06-13T18:49:31.566Z,99.90
2018-06-13T18:52:01.581Z,99.90
2018-06-13T18:54:31.019Z,99.90
2018-06-13T18:57:01.257Z,99.90
2018-06-13T18:59:30.621Z,99.90
2018-06-13T19:02:00.189Z,99.90
2018-06-13T19:04:29.610Z,99.90
2018-06-13T19:06:59.178Z,99.90
2018-06-13T19:09:28.572Z,99.90
2018-06-13T19:11:57.949Z,99.90
2018-06-13T19:14:27.602Z,99.90
2018-06-13T19:16:57.302Z,99.90
2018-06-13T19:19:27.090Z,99.90
2018-06-13T19:21:56.505Z,99.90
2018-06-13T19:24:25.851Z,99.90
2018-06-13T19:26:55.581Z,99.90
2018-06-13T19:29:25.014Z,99.90
2018-06-13T19:31:54.888Z,99.90
2018-06-13T19:34:24.604Z,99.90
2018-06-13T19:36:54.333Z,99.90
2018-06-13T19:39:23.996Z,99.90
2018-06-13T19:41:53.629Z,99.90
2018-06-13T19:44:23.285Z,99.90
2018-06-13T19:46:53.088Z,99.90
2018-06-13T19:49:22.658Z,99.90
2018-06-13T19:51:52.835Z,99.90
2018-06-13T19:54:28.025Z,99.90
2018-06-13T19:56:57.696Z,99.90
2018-06-13T19:59:27.141Z,99.90
2018-06-13T20:01:56.804Z,99.90
2018-06-13T20:04:31.638Z,99.90
2018-06-13T20:07:01.493Z,99.90
2018-06-13T20:09:31.402Z,99.90
2018-06-13T20:12:06.470Z,99.90
2018-06-13T20:14:41.194Z,99.90
2018-06-13T20:17:16.137Z,99.90
2018-06-13T20:19:46.290Z,99.90
2018-06-13T20:22:16.127Z,99.90
2018-06-13T20:27:25.861Z,99.90
2018-06-13T20:30:01.037Z,99.90
2018-06-13T20:32:30.440Z,99.90
2018-06-13T20:34:59.837Z,99.90
2018-06-13T20:37:29.352Z,99.90
2018-06-13T20:39:58.947Z,99.90
2018-06-13T20:42:36.549Z,99.90
2018-06-13T20:45:06.744Z,99.90
2018-06-13T20:47:36.352Z,99.90
2018-06-13T20:50:05.786Z,99.90
2018-06-13T20:52:35.521Z,99.90
2018-06-13T20:55:05.047Z,99.90
2018-06-13T20:57:34.483Z,99.90
2018-06-13T21:00:04.566Z,99.90
2018-06-13T21:02:33.958Z,99.90
2018-06-13T21:05:03.654Z,99.90
2018-06-13T21:07:33.312Z,99.90
2018-06-13T21:10:02.733Z,99.90
2018-06-13T21:12:32.218Z,99.90
2018-06-13T21:15:01.856Z,99.90
2018-06-13T21:17:31.607Z,99.90
2018-06-13T21:20:01.230Z,99.90
2018-06-13T21:22:30.714Z,99.90
2018-06-13T21:25:00.461Z,99.90
2018-06-13T21:27:30.183Z,99.90
2018-06-13T21:29:59.910Z,99.90
2018-06-13T21:32:29.603Z,99.90
2018-06-13T21:34:59.126Z,99.90
2018-06-13T21:37:28.949Z,99.90
2018-06-13T21:39:58.400Z,99.90
2018-06-13T21:42:28.412Z,99.90
2018-06-13T21:44:57.782Z,99.90
2018-06-13T21:47:27.178Z,99.90
2018-06-13T21:49:56.966Z,99.90
2018-06-13T21:52:26.437Z,99.90
2018-06-13T21:54:55.806Z,99.90
2018-06-13T21:57:25.180Z,99.90
2018-06-13T21:59:54.610Z,99.90
2018-06-13T22:02:24.492Z,99.90
2018-06-13T22:04:54.537Z,99.90
2018-06-13T22:07:23.912Z,99.90
2018-06-13T22:09:53.577Z,99.90
2018-06-13T22:12:23.245Z,99.90
2018-06-13T22:14:52.872Z,99.90
2018-06-13T22:17:22.901Z,99.90
2018-06-13T22:19:52.550Z,99.90
2018-06-13T22:22:21.981Z,99.90
2018-06-13T22:24:51.617Z,99.90
2018-06-13T22:27:21.272Z,99.90
2018-06-13T22:29:50.946Z,99.90
2018-06-13T22:32:20.567Z,99.90
2018-06-13T22:34:50.228Z,99.90
2018-06-13T22:37:19.944Z,99.90
2018-06-13T22:39:49.694Z,99.90
2018-06-13T22:42:19.315Z,99.90
2018-06-13T22:44:49.186Z,99.90
2018-06-13T22:47:18.958Z,99.90
2018-06-13T22:49:48.942Z,99.90
2018-06-13T22:52:18.772Z,99.90
2018-06-13T22:54:48.349Z,99.90
2018-06-13T22:57:18.028Z,99.90
2018-06-13T22:59:47.502Z,99.90
2018-06-13T23:02:17.156Z,99.90
2018-06-13T23:07:16.001Z,99.90
2018-06-13T23:09:45.957Z,99.90
2018-06-13T23:12:15.627Z,99.90
2018-06-13T23:14:45.241Z,99.90
2018-06-13T23:17:14.953Z,99.90
2018-06-13T23:19:44.648Z,99.90
2018-06-13T23:22:14.445Z,99.90
2018-06-13T23:24:43.761Z,99.90
2018-06-13T23:27:13.408Z,99.90
2018-06-13T23:29:43.101Z,99.90
2018-06-13T23:32:12.776Z,99.90
2018-06-13T23:34:42.453Z,99.90
2018-06-13T23:37:12.123Z,99.90
2018-06-13T23:39:41.927Z,99.90
2018-06-13T23:42:11.568Z,99.90
2018-06-13T23:44:41.247Z,99.90
2018-06-13T23:47:10.812Z,99.90
2018-06-13T23:49:40.460Z,99.90
2018-06-13T23:52:10.148Z,99.90
2018-06-13T23:54:39.782Z,99.90
2018-06-13T23:57:09.504Z,99.90
2018-06-13T23:59:39.152Z,99.90
